createdAt,value
2023-03-06T00:00:52.612Z,98766.94
2023-03-06T00:03:20.343Z,98772.13
2023-03-06T00:05:48.001Z,98769.63
2023-03-06T00:08:15.168Z,98770.38
2023-03-06T00:10:42.162Z,98779.94
2023-03-06T00:13:13.404Z,98773.91
2023-03-06T00:15:40.693Z,98774.97
2023-03-06T00:18:08.065Z,98785.25
2023-03-06T00:20:36.252Z,98781.09
2023-03-06T00:23:03.594Z,98777.78
2023-03-06T00:25:30.603Z,98772.81
2023-03-06T00:27:57.891Z,98783.69
2023-03-06T00:30:25.644Z,98786.44
2023-03-06T00:32:53.713Z,98792.56
2023-03-06T00:35:21.150Z,98795.66
2023-03-06T00:37:48.521Z,98792.31
2023-03-06T00:40:20.328Z,98798.47
2023-03-06T00:42:48.046Z,98801.41
2023-03-06T00:45:16.114Z,98794.78
2023-03-06T00:47:43.633Z,98805.88
2023-03-06T00:50:11.790Z,98806.94
2023-03-06T00:52:39.109Z,98808.47
2023-03-06T00:55:06.700Z,98814.66
2023-03-06T00:57:33.734Z,98821.50
2023-03-06T01:00:00.765Z,98823.88
2023-03-06T01:02:27.918Z,98818.88
2023-03-06T01:04:55.356Z,98830.59
2023-03-06T01:07:22.410Z,98831.31
2023-03-06T01:09:49.462Z,98835.72
2023-03-06T01:12:16.510Z,98841.72
2023-03-06T01:14:43.503Z,98838.31
2023-03-06T01:17:10.714Z,98846.00
2023-03-06T01:19:37.785Z,98840.66
2023-03-06T01:22:04.796Z,98848.25
2023-03-06T01:24:31.750Z,98851.69
2023-03-06T01:26:58.797Z,98850.63
2023-03-06T01:29:26.670Z,98850.75
2023-03-06T01:31:53.681Z,98858.22
2023-03-06T01:34:20.655Z,98857.38
2023-03-06T01:36:47.696Z,98849.78
2023-03-06T01:39:14.760Z,98857.38
2023-03-06T01:41:41.691Z,98863.28
2023-03-06T01:44:13.897Z,98860.19
2023-03-06T01:46:45.398Z,98861.88
2023-03-06T01:49:38.447Z,98873.94
2023-03-06T01:52:12.729Z,98873.31
2023-03-06T01:54:44.957Z,98876.97
2023-03-06T01:57:14.929Z,98878.03
2023-03-06T01:59:43.196Z,98885.84
2023-03-06T02:02:12.897Z,98890.22
2023-03-06T02:04:42.540Z,98885.94
2023-03-06T02:07:10.701Z,98892.09
2023-03-06T02:09:38.897Z,98891.38
2023-03-06T02:12:13.480Z,98899.28
2023-03-06T02:14:41.964Z,98896.91
2023-03-06T02:17:12.502Z,98899.63
2023-03-06T02:19:57.715Z,98907.22
2023-03-06T02:22:31.954Z,98915.22
2023-03-06T02:25:16.149Z,98913.56
2023-03-06T02:27:43.331Z,98919.00
2023-03-06T02:30:11.216Z,98920.06
2023-03-06T02:32:38.288Z,98927.03
2023-03-06T02:35:07.457Z,98919.66
2023-03-06T02:37:34.496Z,98928.72
2023-03-06T02:40:09.965Z,98928.34
2023-03-06T02:42:36.997Z,98936.25
2023-03-06T02:45:08.358Z,98936.47
2023-03-06T02:47:35.336Z,98935.63
2023-03-06T02:50:02.350Z,98940.13
2023-03-06T02:52:30.487Z,98928.25
2023-03-06T02:54:57.435Z,98936.06
2023-03-06T02:57:24.338Z,98932.03
2023-03-06T02:59:51.316Z,98939.84
2023-03-06T03:02:18.304Z,98935.88
2023-03-06T03:04:45.413Z,98946.69
2023-03-06T03:07:12.562Z,98949.38
2023-03-06T03:09:39.593Z,98950.09
2023-03-06T03:12:07.368Z,98953.75
2023-03-06T03:14:34.330Z,98954.81
2023-03-06T03:17:02.753Z,98944.94
2023-03-06T03:19:29.788Z,98957.72
2023-03-06T03:21:56.778Z,98957.00
2023-03-06T03:24:24.354Z,98967.63
2023-03-06T03:26:51.374Z,98960.03
2023-03-06T03:29:18.751Z,98964.84
2023-03-06T03:31:45.776Z,98970.03
2023-03-06T03:34:12.891Z,98970.34
2023-03-06T03:36:40.228Z,98976.59
2023-03-06T03:39:07.509Z,98980.44
2023-03-06T03:41:34.681Z,98988.44
2023-03-06T03:44:01.721Z,98991.03
2023-03-06T03:46:29.015Z,98990.31
2023-03-06T03:48:56.067Z,98989.16
2023-03-06T03:51:23.231Z,98996.94
2023-03-06T03:53:50.535Z,98991.75
2023-03-06T03:56:18.035Z,98993.22
2023-03-06T03:58:45.046Z,98989.78
2023-03-06T04:01:12.125Z,98982.59
2023-03-06T04:03:39.147Z,98985.69
2023-03-06T04:06:06.531Z,98983.53
2023-03-06T04:08:33.751Z,98988.41
2023-03-06T04:11:01.103Z,98987.16
2023-03-06T04:13:28.258Z,98993.56
2023-03-06T04:15:56.414Z,98987.44
2023-03-06T04:18:23.773Z,99006.03
2023-03-06T04:20:51.346Z,98998.03
2023-03-06T04:23:19.347Z,99009.56
2023-03-06T04:25:46.875Z,99004.75
2023-03-06T04:28:14.666Z,99005.25
2023-03-06T04:30:42.222Z,99009.56
2023-03-06T04:33:09.677Z,99008.09
2023-03-06T04:35:36.909Z,99006.59
2023-03-06T04:38:05.159Z,99012.81
2023-03-06T04:40:34.867Z,99018.25
2023-03-06T04:43:03.355Z,99012.63
2023-03-06T04:45:32.155Z,99023.19
2023-03-06T04:47:59.797Z,99024.38
2023-03-06T04:50:28.500Z,99023.13
2023-03-06T04:52:55.470Z,99025.75
2023-03-06T04:55:22.567Z,99034.91
2023-03-06T04:57:49.542Z,99033.50
2023-03-06T05:00:20.494Z,99039.06
2023-03-06T05:02:48.455Z,99041.22
2023-03-06T05:05:16.729Z,99047.53
2023-03-06T05:07:44.008Z,99051.91
2023-03-06T05:10:13.832Z,99040.69
2023-03-06T05:12:40.774Z,99055.03
2023-03-06T05:15:08.633Z,99054.22
2023-03-06T05:17:35.819Z,99048.44
2023-03-06T05:20:06.291Z,99056.34
2023-03-06T05:22:34.494Z,99044.13
2023-03-06T05:25:01.838Z,99059.06
2023-03-06T05:27:31.117Z,99061.78
2023-03-06T05:29:58.230Z,99058.69
2023-03-06T05:32:25.276Z,99065.09
2023-03-06T05:34:52.348Z,99071.47
2023-03-06T05:37:19.316Z,99074.56
2023-03-06T05:39:46.689Z,99065.78
2023-03-06T05:42:13.610Z,99071.09
2023-03-06T05:44:41.939Z,99063.25
2023-03-06T05:47:09.801Z,99070.06
2023-03-06T05:49:37.125Z,99063.16
2023-03-06T05:52:06.053Z,99074.97
2023-03-06T05:54:34.551Z,99074.91
2023-03-06T05:57:02.284Z,99076.63
2023-03-06T05:59:29.324Z,99079.19
2023-03-06T06:01:56.573Z,99077.06
2023-03-06T06:04:25.022Z,99085.41
2023-03-06T06:06:57.664Z,99076.66
2023-03-06T06:09:25.710Z,99083.63
2023-03-06T06:11:54.448Z,99084.56
2023-03-06T06:14:22.005Z,99083.75
2023-03-06T06:16:49.806Z,99083.53
2023-03-06T06:19:20.446Z,99086.59
2023-03-06T06:21:52.712Z,99078.75
2023-03-06T06:24:22.417Z,99091.47
2023-03-06T06:26:57.020Z,99088.56
2023-03-06T06:29:25.366Z,99091.94
2023-03-06T06:31:53.320Z,99093.72
2023-03-06T06:34:22.079Z,99083.38
2023-03-06T06:36:51.049Z,99092.06
2023-03-06T06:39:20.926Z,99089.59
2023-03-06T06:42:05.555Z,99091.34
2023-03-06T06:44:37.910Z,99080.59
2023-03-06T06:47:24.661Z,99100.56
2023-03-06T06:49:53.529Z,99089.78
2023-03-06T06:52:20.959Z,99101.03
2023-03-06T06:54:48.214Z,99092.25
2023-03-06T06:57:16.085Z,99091.03
2023-03-06T06:59:43.140Z,99095.00
2023-03-06T07:02:16.082Z,99094.75
2023-03-06T07:05:00.668Z,99092.41
2023-03-06T07:07:31.575Z,99091.69
2023-03-06T07:09:58.602Z,99090.03
2023-03-06T07:12:25.730Z,99090.47
2023-03-06T07:14:52.661Z,99088.88
2023-03-06T07:17:19.657Z,99101.47
2023-03-06T07:19:46.731Z,99099.34
2023-03-06T07:22:13.853Z,99102.19
2023-03-06T07:24:40.937Z,99106.88
2023-03-06T07:27:08.121Z,99093.84
2023-03-06T07:29:35.085Z,99093.25
2023-03-06T07:32:02.341Z,99092.44
2023-03-06T07:34:29.608Z,99091.09
2023-03-06T07:36:56.618Z,99105.88
2023-03-06T07:39:23.745Z,99105.03
2023-03-06T07:41:52.360Z,99098.84
2023-03-06T07:44:19.589Z,99103.41
2023-03-06T07:46:47.795Z,99104.66
2023-03-06T07:49:14.879Z,99112.59
2023-03-06T07:51:41.875Z,99101.91
2023-03-06T07:54:08.876Z,99113.09
2023-03-06T07:56:35.880Z,99103.38
2023-03-06T07:59:03.364Z,99100.53
2023-03-06T08:01:30.907Z,99106.94
2023-03-06T08:03:58.097Z,99101.63
2023-03-06T08:06:27.411Z,99104.50
2023-03-06T08:08:55.908Z,99101.88
2023-03-06T08:11:25.749Z,99102.94
2023-03-06T08:13:53.815Z,99106.34
2023-03-06T08:16:22.753Z,99097.97
2023-03-06T08:18:49.920Z,99101.34
2023-03-06T08:21:19.950Z,99104.44
2023-03-06T08:23:48.192Z,99105.25
2023-03-06T08:26:18.794Z,99107.69
2023-03-06T08:28:45.711Z,99112.78
2023-03-06T08:31:34.281Z,99110.91
2023-03-06T08:34:03.946Z,99112.69
2023-03-06T08:36:31.053Z,99114.91
2023-03-06T08:38:58.493Z,99107.31
2023-03-06T08:41:25.920Z,99106.47
2023-03-06T08:43:53.010Z,99114.25
2023-03-06T08:46:21.800Z,99116.91
2023-03-06T08:48:48.798Z,99116.63
2023-03-06T08:51:17.097Z,99117.56
2023-03-06T08:53:44.764Z,99112.88
2023-03-06T08:56:20.404Z,99118.25
2023-03-06T08:58:48.011Z,99115.19
2023-03-06T09:01:20.635Z,99110.91
2023-03-06T09:03:47.907Z,99105.84
2023-03-06T09:06:15.814Z,99106.44
2023-03-06T09:08:43.309Z,99102.34
2023-03-06T09:11:11.659Z,99102.16
2023-03-06T09:13:38.957Z,99107.78
2023-03-06T09:16:06.357Z,99098.75
2023-03-06T09:18:33.396Z,99092.13
2023-03-06T09:21:00.440Z,99106.69
2023-03-06T09:23:27.401Z,99084.63
2023-03-06T09:25:55.524Z,99096.00
2023-03-06T09:28:23.357Z,99098.97
2023-03-06T09:30:50.991Z,99099.06
2023-03-06T09:33:18.789Z,99097.53
2023-03-06T09:35:51.142Z,99097.34
2023-03-06T09:38:19.894Z,99094.34
2023-03-06T09:41:05.114Z,99098.78
2023-03-06T09:43:40.150Z,99103.00
2023-03-06T09:46:25.314Z,99097.13
2023-03-06T09:49:30.431Z,99098.91
2023-03-06T09:52:24.883Z,99107.31
2023-03-06T09:55:19.479Z,99105.06
2023-03-06T09:58:02.685Z,99103.00
2023-03-06T10:00:36.636Z,99102.19
2023-03-06T10:03:25.108Z,99111.91
2023-03-06T10:06:13.560Z,99110.66
2023-03-06T10:08:57.682Z,99115.31
2023-03-06T10:11:47.453Z,99113.09
2023-03-06T10:14:37.720Z,99119.13
2023-03-06T10:17:06.372Z,99110.22
2023-03-06T10:19:40.242Z,99114.41
2023-03-06T10:22:23.851Z,99116.78
2023-03-06T10:24:55.806Z,99114.38
2023-03-06T10:27:46.104Z,99115.56
2023-03-06T10:30:19.272Z,99116.25
2023-03-06T10:32:55.780Z,99112.00
2023-03-06T10:35:30.458Z,99114.63
2023-03-06T10:38:25.431Z,99114.25
2023-03-06T10:41:20.176Z,99112.25
2023-03-06T10:44:04.837Z,99114.94
2023-03-06T10:46:42.700Z,99119.94
2023-03-06T10:49:36.123Z,99123.59
2023-03-06T10:52:15.344Z,99120.81
2023-03-06T10:54:44.918Z,99116.69
2023-03-06T10:57:28.390Z,99119.19
2023-03-06T11:00:06.354Z,99061.06
2023-03-06T11:02:41.277Z,99113.06
2023-03-06T11:05:21.361Z,99100.03
2023-03-06T11:07:57.344Z,99119.81
2023-03-06T11:10:24.628Z,99116.22
2023-03-06T11:13:07.796Z,99114.53
2023-03-06T11:15:34.958Z,99111.91
2023-03-06T11:18:05.051Z,99119.31
2023-03-06T11:20:51.098Z,99110.25
2023-03-06T11:23:29.612Z,99115.38
2023-03-06T11:26:18.246Z,99115.72
2023-03-06T11:28:45.302Z,99108.94
2023-03-06T11:31:24.930Z,99106.72
2023-03-06T11:33:58.822Z,99093.34
2023-03-06T11:36:33.977Z,99104.03
2023-03-06T11:39:04.774Z,99107.97
2023-03-06T11:41:45.270Z,99090.28
2023-03-06T11:45:10.379Z,99098.00
2023-03-06T11:47:52.937Z,99093.34
2023-03-06T11:50:34.188Z,99102.06
2023-03-06T11:53:03.561Z,99099.28
2023-03-06T11:55:39.786Z,99099.78
2023-03-06T11:58:37.556Z,99095.03
2023-03-06T12:01:33.648Z,99100.28
2023-03-06T12:04:28.581Z,99088.44
2023-03-06T12:07:26.772Z,99097.81
2023-03-06T12:10:14.902Z,99085.13
2023-03-06T12:13:09.821Z,99086.84
2023-03-06T12:16:20.416Z,99069.19
2023-03-06T12:19:07.391Z,99088.91
2023-03-06T12:21:47.485Z,99080.16
2023-03-06T12:24:23.516Z,99075.88
2023-03-06T12:27:06.388Z,99086.72
2023-03-06T12:29:36.415Z,99078.47
2023-03-06T12:33:08.126Z,99081.69
2023-03-06T12:35:55.159Z,99078.22
2023-03-06T12:38:40.815Z,99082.50
2023-03-06T12:41:13.670Z,99085.78
2023-03-06T12:44:11.872Z,99075.03
2023-03-06T12:46:49.758Z,99079.97
2023-03-06T12:49:32.805Z,99075.53
2023-03-06T12:52:02.696Z,99068.78
2023-03-06T12:54:33.824Z,99076.22
2023-03-06T12:57:01.365Z,99077.69
2023-03-06T12:59:44.853Z,99075.53
2023-03-06T13:02:35.907Z,99083.38
2023-03-06T13:05:36.363Z,99080.53
2023-03-06T13:08:35.717Z,99086.41
2023-03-06T13:11:37.049Z,99082.50
2023-03-06T13:14:25.082Z,99083.75
2023-03-06T13:16:53.528Z,99083.25
2023-03-06T13:19:29.567Z,99079.84
2023-03-06T13:21:57.375Z,99086.28
2023-03-06T13:24:27.034Z,99093.34
2023-03-06T13:27:08.895Z,99093.16
2023-03-06T13:29:38.928Z,99092.34
2023-03-06T13:32:17.471Z,99071.75
2023-03-06T13:34:50.234Z,99075.88
2023-03-06T13:37:17.347Z,99090.34
2023-03-06T13:39:59.362Z,99085.63
2023-03-06T13:42:30.807Z,99087.63
2023-03-06T13:45:06.209Z,99090.34
2023-03-06T13:48:33.821Z,99094.88
2023-03-06T13:50:45.167Z,99088.56
2023-03-06T13:53:41.059Z,99092.09
2023-03-06T13:56:45.518Z,99092.31
2023-03-06T13:59:37.954Z,99090.84
2023-03-06T14:02:17.352Z,99093.41
2023-03-06T14:04:55.809Z,99093.94
2023-03-06T14:07:31.747Z,99068.28
2023-03-06T14:10:33.828Z,99095.56
2023-03-06T14:13:13.634Z,99102.47
2023-03-06T14:16:48.656Z,99089.03
2023-03-06T14:19:19.110Z,99099.63
2023-03-06T14:21:50.030Z,99109.16
2023-03-06T14:24:20.231Z,99097.06
2023-03-06T14:26:51.816Z,99105.50
2023-03-06T14:29:24.467Z,99107.88
2023-03-06T14:31:54.012Z,99104.25
2023-03-06T14:34:28.181Z,99100.47
2023-03-06T14:37:00.354Z,99094.41
2023-03-06T14:39:38.681Z,99112.78
2023-03-06T14:42:19.148Z,99115.03
2023-03-06T14:44:47.412Z,99114.56
2023-03-06T14:47:32.356Z,99114.09
2023-03-06T14:50:18.043Z,99113.50
2023-03-06T14:52:45.669Z,99106.97
2023-03-06T14:55:19.506Z,99113.97
2023-03-06T14:58:11.060Z,99109.59
2023-03-06T15:00:44.257Z,99117.19
2023-03-06T15:03:22.038Z,99118.13
2023-03-06T15:05:50.489Z,99124.03
2023-03-06T15:08:22.304Z,99125.72
2023-03-06T15:11:05.455Z,99114.56
2023-03-06T15:13:34.115Z,99123.81
2023-03-06T15:16:04.784Z,99121.19
2023-03-06T15:18:54.491Z,99117.88
2023-03-06T15:21:23.146Z,99128.41
2023-03-06T15:23:54.052Z,99126.66
2023-03-06T15:26:40.720Z,99121.09
2023-03-06T15:29:11.128Z,99128.19
2023-03-06T15:31:40.842Z,99133.53
2023-03-06T15:34:08.017Z,99128.09
2023-03-06T15:36:48.341Z,99134.94
2023-03-06T15:39:28.431Z,99131.41
2023-03-06T15:42:18.375Z,99137.31
2023-03-06T15:44:51.701Z,99138.25
2023-03-06T15:47:19.672Z,99148.59
2023-03-06T15:49:46.938Z,99138.25
2023-03-06T15:52:14.023Z,99142.69
2023-03-06T15:54:41.075Z,99146.94
2023-03-06T15:57:25.110Z,99138.53
2023-03-06T15:59:53.408Z,99138.53
2023-03-06T16:02:22.084Z,99138.53
2023-03-06T16:04:49.672Z,99147.28
2023-03-06T16:07:22.475Z,99144.81
2023-03-06T16:09:49.529Z,99136.38
2023-03-06T16:12:18.752Z,99139.22
2023-03-06T16:14:48.842Z,99132.44
2023-03-06T16:17:16.795Z,99141.25
2023-03-06T16:19:44.453Z,99139.69
2023-03-06T16:22:11.614Z,99140.84
2023-03-06T16:24:38.764Z,99129.22
2023-03-06T16:27:07.177Z,99144.88
2023-03-06T16:29:34.500Z,99141.78
2023-03-06T16:32:02.097Z,99138.09
2023-03-06T16:34:29.272Z,99146.03
2023-03-06T16:36:56.575Z,99136.88
2023-03-06T16:39:24.573Z,99135.78
2023-03-06T16:41:52.365Z,99145.50
2023-03-06T16:44:20.903Z,99129.09
2023-03-06T16:46:52.483Z,99144.72
2023-03-06T16:49:25.556Z,99143.31
2023-03-06T16:51:53.869Z,99141.75
2023-03-06T16:54:22.021Z,99140.78
2023-03-06T16:56:49.108Z,99145.16
2023-03-06T16:59:16.179Z,99133.53
2023-03-06T17:01:43.489Z,99129.25
2023-03-06T17:04:10.939Z,99142.66
2023-03-06T17:06:38.703Z,99144.31
2023-03-06T17:09:05.830Z,99142.44
2023-03-06T17:11:33.037Z,99144.09
2023-03-06T17:14:00.487Z,99144.72
2023-03-06T17:16:27.473Z,99148.97
2023-03-06T17:18:55.273Z,99151.34
2023-03-06T17:21:22.357Z,99148.53
2023-03-06T17:23:51.027Z,99146.84
2023-03-06T17:26:19.509Z,99151.75
2023-03-06T17:28:47.609Z,99141.53
2023-03-06T17:31:15.891Z,99154.22
2023-03-06T17:33:43.561Z,99159.44
2023-03-06T17:36:11.062Z,99152.47
2023-03-06T17:38:39.842Z,99157.66
2023-03-06T17:41:09.455Z,99149.84
2023-03-06T17:43:37.814Z,99156.69
2023-03-06T17:46:06.601Z,99150.56
2023-03-06T17:48:34.465Z,99144.50
2023-03-06T17:51:01.973Z,99142.25
2023-03-06T17:53:29.282Z,99151.41
2023-03-06T17:55:58.392Z,99152.13
2023-03-06T17:58:28.588Z,99151.28
2023-03-06T18:00:55.682Z,99152.47
2023-03-06T18:03:22.876Z,99143.81
2023-03-06T18:06:04.423Z,99153.88
2023-03-06T18:08:32.418Z,99152.25
2023-03-06T18:11:00.924Z,99156.63
2023-03-06T18:13:28.141Z,99153.28
2023-03-06T18:15:55.615Z,99150.91
2023-03-06T18:18:23.534Z,99153.50
2023-03-06T18:20:50.589Z,99148.53
2023-03-06T18:23:17.690Z,99152.41
2023-03-06T18:25:44.876Z,99145.75
2023-03-06T18:28:12.066Z,99154.00
2023-03-06T18:30:41.505Z,99150.19
2023-03-06T18:33:10.244Z,99142.94
2023-03-06T18:35:37.309Z,99144.63
2023-03-06T18:38:04.405Z,99151.69
2023-03-06T18:40:31.570Z,99151.69
2023-03-06T18:42:58.652Z,99156.47
2023-03-06T18:45:25.901Z,99153.72
2023-03-06T18:47:52.908Z,99156.13
2023-03-06T18:50:19.918Z,99152.59
2023-03-06T18:52:47.043Z,99158.38
2023-03-06T18:55:14.135Z,99159.13
2023-03-06T18:57:41.617Z,99159.84
2023-03-06T19:00:09.710Z,99155.34
2023-03-06T19:02:36.809Z,99153.47
2023-03-06T19:05:03.850Z,99147.31
2023-03-06T19:07:31.057Z,99154.78
2023-03-06T19:09:58.128Z,99149.69
2023-03-06T19:12:25.263Z,99154.44
2023-03-06T19:14:52.353Z,99152.34
2023-03-06T19:17:21.412Z,99140.28
2023-03-06T19:19:50.504Z,99162.19
2023-03-06T19:22:17.715Z,99146.78
2023-03-06T19:24:44.698Z,99150.63
2023-03-06T19:27:11.979Z,99145.50
2023-03-06T19:29:42.165Z,99152.88
2023-03-06T19:32:09.270Z,99154.53
2023-03-06T19:34:36.456Z,99154.41
2023-03-06T19:37:03.680Z,99155.97
2023-03-06T19:39:30.843Z,99155.03
2023-03-06T19:41:57.838Z,99155.03
2023-03-06T19:44:25.421Z,99147.66
2023-03-06T19:46:52.451Z,99139.13
2023-03-06T19:49:22.361Z,99160.25
2023-03-06T19:51:49.447Z,99153.22
2023-03-06T19:54:16.418Z,99157.75
2023-03-06T19:56:43.583Z,99157.75
2023-03-06T19:59:11.048Z,99159.00
2023-03-06T20:01:38.796Z,99156.41
2023-03-06T20:04:06.080Z,99152.03
2023-03-06T20:06:36.881Z,99160.91
2023-03-06T20:09:08.439Z,99162.09
2023-03-06T20:11:35.695Z,99164.69
2023-03-06T20:14:05.029Z,99163.88
2023-03-06T20:16:33.932Z,99155.22
2023-03-06T20:19:01.648Z,99157.81
2023-03-06T20:21:31.350Z,99164.34
2023-03-06T20:23:59.271Z,99160.69
2023-03-06T20:26:27.776Z,99167.44
2023-03-06T20:28:55.180Z,99160.47
2023-03-06T20:31:25.304Z,99163.91
2023-03-06T20:33:53.990Z,99158.69
2023-03-06T20:36:24.529Z,99158.69
2023-03-06T20:38:54.981Z,99165.56
2023-03-06T20:41:25.860Z,99165.69
2023-03-06T20:43:53.633Z,99169.84
2023-03-06T20:46:22.032Z,99174.00
2023-03-06T20:48:50.862Z,99175.63
2023-03-06T20:51:21.149Z,99176.38
2023-03-06T20:53:50.101Z,99176.13
2023-03-06T20:56:19.975Z,99173.28
2023-03-06T20:58:47.774Z,99175.81
2023-03-06T21:01:21.696Z,99174.25
2023-03-06T21:03:51.369Z,99189.31
2023-03-06T21:06:19.907Z,99187.78
2023-03-06T21:08:47.714Z,99192.16
2023-03-06T21:11:15.803Z,99199.75
2023-03-06T21:13:42.827Z,99204.00
2023-03-06T21:16:16.147Z,99204.84
2023-03-06T21:18:43.806Z,99202.94
2023-03-06T21:21:14.114Z,99214.09
2023-03-06T21:23:41.332Z,99214.84
2023-03-06T21:26:11.687Z,99223.38
2023-03-06T21:28:39.831Z,99224.19
2023-03-06T21:31:08.689Z,99225.84
2023-03-06T21:33:36.722Z,99223.59
2023-03-06T21:36:04.117Z,99235.56
2023-03-06T21:38:31.240Z,99231.53
2023-03-06T21:41:14.152Z,99228.53
2023-03-06T21:43:41.859Z,99247.84
2023-03-06T21:46:09.353Z,99242.25
2023-03-06T21:48:36.864Z,99246.13
2023-03-06T21:51:09.230Z,99248.38
2023-03-06T21:53:37.027Z,99248.69
2023-03-06T21:56:05.293Z,99254.03
2023-03-06T21:58:32.746Z,99249.03
2023-03-06T22:00:59.880Z,99252.91
2023-03-06T22:03:28.742Z,99260.44
2023-03-06T22:05:56.896Z,99255.88
2023-03-06T22:08:25.383Z,99250.00
2023-03-06T22:10:52.440Z,99274.03
2023-03-06T22:13:19.486Z,99274.50
2023-03-06T22:15:53.567Z,99278.22
2023-03-06T22:18:20.641Z,99283.56
2023-03-06T22:20:47.623Z,99284.72
2023-03-06T22:23:14.761Z,99294.38
2023-03-06T22:25:41.821Z,99292.75
2023-03-06T22:28:08.811Z,99286.19
2023-03-06T22:30:35.773Z,99295.56
2023-03-06T22:33:02.950Z,99300.44
2023-03-06T22:35:30.063Z,99300.84
2023-03-06T22:37:58.718Z,99296.94
2023-03-06T22:40:26.003Z,99295.38
2023-03-06T22:42:53.059Z,99305.78
2023-03-06T22:45:20.161Z,99311.06
2023-03-06T22:47:47.136Z,99305.25
2023-03-06T22:50:14.613Z,99312.13
2023-03-06T22:52:41.607Z,99310.56
2023-03-06T22:55:09.686Z,99311.50
2023-03-06T22:57:36.691Z,99315.66
2023-03-06T23:00:04.175Z,99314.00
2023-03-06T23:02:35.492Z,99317.31
2023-03-06T23:05:02.528Z,99320.75
2023-03-06T23:07:30.600Z,99323.47
2023-03-06T23:09:58.182Z,99322.53
2023-03-06T23:12:25.164Z,99329.41
2023-03-06T23:14:52.242Z,99317.44
2023-03-06T23:17:19.223Z,99327.72
2023-03-06T23:19:49.541Z,99326.81
2023-03-06T23:22:16.790Z,99328.69
2023-03-06T23:24:43.843Z,99338.88
2023-03-06T23:27:11.316Z,99337.00
2023-03-06T23:29:38.273Z,99329.72
2023-03-06T23:32:05.725Z,99333.06
2023-03-06T23:34:32.630Z,99333.06
2023-03-06T23:36:59.693Z,99333.78
2023-03-06T23:39:26.779Z,99331.16
2023-03-06T23:41:53.724Z,99330.53
2023-03-06T23:44:20.884Z,99336.38
2023-03-06T23:46:47.826Z,99331.16
2023-03-06T23:49:15.222Z,99338.97
2023-03-06T23:51:42.573Z,99336.38
2023-03-06T23:54:10.765Z,99348.34
2023-03-06T23:56:37.963Z,99342.09
2023-03-06T23:59:05.003Z,99334.41
